sensor_id;sensor_type;location;lat;lon;timestamp;pressure;altitude;pressure_sealevel;temperature;humidity
58243;BME280;50118;53.232;8.252;2022-11-03T00:02:15;101403.53;;;8.69;97.79
58243;BME280;50118;53.232;8.252;2022-11-03T00:04:40;101405.84;;;8.85;96.97
58243;BME280;50118;53.232;8.252;2022-11-03T00:07:06;101402.81;;;8.78;97.47
58243;BME280;50118;53.232;8.252;2022-11-03T00:09:31;101395.94;;;8.75;97.54
58243;BME280;50118;53.232;8.252;2022-11-03T00:11:57;101392.41;;;8.75;97.58
58243;BME280;50118;53.232;8.252;2022-11-03T00:14:23;101390.63;;;8.75;97.87
58243;BME280;50118;53.232;8.252;2022-11-03T00:16:48;101404.75;;;8.76;97.80
58243;BME280;50118;53.232;8.252;2022-11-03T00:19:13;101397.34;;;8.68;98.49
58243;BME280;50118;53.232;8.252;2022-11-03T00:21:41;101385.44;;;8.74;98.17
58243;BME280;50118;53.232;8.252;2022-11-03T00:24:06;101391.72;;;8.84;97.16
58243;BME280;50118;53.232;8.252;2022-11-03T00:26:33;101386.31;;;8.86;97.23
58243;BME280;50118;53.232;8.252;2022-11-03T00:29:05;101389.19;;;8.83;97.44
58243;BME280;50118;53.232;8.252;2022-11-03T00:31:33;101375.31;;;8.90;96.99
58243;BME280;50118;53.232;8.252;2022-11-03T00:33:59;101377.47;;;8.85;97.13
58243;BME280;50118;53.232;8.252;2022-11-03T00:36:33;101374.31;;;8.80;97.50
58243;BME280;50118;53.232;8.252;2022-11-03T00:38:58;101367.59;;;8.87;97.29
58243;BME280;50118;53.232;8.252;2022-11-03T00:41:25;101363.47;;;8.83;97.05
58243;BME280;50118;53.232;8.252;2022-11-03T00:43:51;101359.63;;;8.87;97.21
58243;BME280;50118;53.232;8.252;2022-11-03T00:46:18;101359.13;;;8.93;97.18
58243;BME280;50118;53.232;8.252;2022-11-03T00:48:44;101351.53;;;8.89;97.08
58243;BME280;50118;53.232;8.252;2022-11-03T00:51:18;101344.41;;;8.89;96.83
58243;BME280;50118;53.232;8.252;2022-11-03T00:53:49;101327.84;;;8.74;98.21
58243;BME280;50118;53.232;8.252;2022-11-03T00:56:18;101355.50;;;8.72;98.77
58243;BME280;50118;53.232;8.252;2022-11-03T00:58:44;101346.53;;;8.73;98.92
58243;BME280;50118;53.232;8.252;2022-11-03T01:01:13;101349.53;;;8.68;98.90
58243;BME280;50118;53.232;8.252;2022-11-03T01:03:41;101347.75;;;8.69;99.17
58243;BME280;50118;53.232;8.252;2022-11-03T01:06:27;101345.09;;;8.69;99.42
58243;BME280;50118;53.232;8.252;2022-11-03T01:09:11;101348.25;;;8.74;99.03
58243;BME280;50118;53.232;8.252;2022-11-03T01:11:36;101347.53;;;8.72;99.04
58243;BME280;50118;53.232;8.252;2022-11-03T01:14:10;101340.53;;;8.82;98.80
58243;BME280;50118;53.232;8.252;2022-11-03T01:16:36;101328.22;;;8.81;98.94
58243;BME280;50118;53.232;8.252;2022-11-03T01:19:02;101331.97;;;8.78;98.96
58243;BME280;50118;53.232;8.252;2022-11-03T01:21:28;101340.53;;;8.82;99.23
58243;BME280;50118;53.232;8.252;2022-11-03T01:23:53;101344.59;;;8.75;99.66
58243;BME280;50118;53.232;8.252;2022-11-03T01:26:19;101338.84;;;8.81;99.65
58243;BME280;50118;53.232;8.252;2022-11-03T01:28:46;101338.84;;;8.81;99.72
58243;BME280;50118;53.232;8.252;2022-11-03T01:31:15;101344.53;;;8.88;99.38
58243;BME280;50118;53.232;8.252;2022-11-03T01:33:41;101340.91;;;8.89;99.08
58243;BME280;50118;53.232;8.252;2022-11-03T01:36:07;101329.41;;;8.88;99.19
58243;BME280;50118;53.232;8.252;2022-11-03T01:38:34;101335.94;;;8.95;99.27
58243;BME280;50118;53.232;8.252;2022-11-03T01:41:01;101317.13;;;8.87;98.96
58243;BME280;50118;53.232;8.252;2022-11-03T01:43:27;101313.00;;;8.94;98.82
58243;BME280;50118;53.232;8.252;2022-11-03T01:48:28;101308.91;;;8.79;99.71
58243;BME280;50118;53.232;8.252;2022-11-03T01:50:54;101304.66;;;8.76;100.00
58243;BME280;50118;53.232;8.252;2022-11-03T01:53:20;101301.38;;;8.73;100.00
58243;BME280;50118;53.232;8.252;2022-11-03T01:55:47;101285.56;;;8.71;100.00
58243;BME280;50118;53.232;8.252;2022-11-03T01:58:20;101286.44;;;8.72;99.90
58243;BME280;50118;53.232;8.252;2022-11-03T02:00:48;101280.75;;;8.65;100.00
58243;BME280;50118;53.232;8.252;2022-11-03T02:03:15;101273.63;;;8.66;100.00
58243;BME280;50118;53.232;8.252;2022-11-03T02:05:44;101271.91;;;8.65;100.00
58243;BME280;50118;53.232;8.252;2022-11-03T02:08:14;101263.72;;;8.56;100.00
58243;BME280;50118;53.232;8.252;2022-11-03T02:10:41;101260.31;;;8.54;100.00
58243;BME280;50118;53.232;8.252;2022-11-03T02:13:14;101249.09;;;8.51;100.00
58243;BME280;50118;53.232;8.252;2022-11-03T02:15:40;101245.56;;;8.39;100.00
58243;BME280;50118;53.232;8.252;2022-11-03T02:18:07;101254.91;;;8.45;100.00
58243;BME280;50118;53.232;8.252;2022-11-03T02:20:34;101249.91;;;8.40;100.00
58243;BME280;50118;53.232;8.252;2022-11-03T02:25:50;101248.22;;;8.39;100.00
58243;BME280;50118;53.232;8.252;2022-11-03T02:28:19;101238.97;;;8.45;100.00
58243;BME280;50118;53.232;8.252;2022-11-03T02:30:48;101243.91;;;8.49;100.00
58243;BME280;50118;53.232;8.252;2022-11-03T02:33:32;101241.75;;;8.43;100.00
58243;BME280;50118;53.232;8.252;2022-11-03T02:39:07;101239.53;;;8.37;100.00
58243;BME280;50118;53.232;8.252;2022-11-03T02:41:36;101244.59;;;8.40;100.00
58243;BME280;50118;53.232;8.252;2022-11-03T02:44:04;101231.22;;;8.41;100.00
58243;BME280;50118;53.232;8.252;2022-11-03T02:46:31;101220.41;;;8.45;100.00
58243;BME280;50118;53.232;8.252;2022-11-03T02:48:58;101224.09;;;8.42;100.00
58243;BME280;50118;53.232;8.252;2022-11-03T02:51:24;101213.38;;;8.44;100.00
58243;BME280;50118;53.232;8.252;2022-11-03T02:54:04;101207.44;;;8.40;100.00
58243;BME280;50118;53.232;8.252;2022-11-03T02:56:31;101207.72;;;8.48;100.00
58243;BME280;50118;53.232;8.252;2022-11-03T02:59:03;101195.53;;;8.46;100.00
58243;BME280;50118;53.232;8.252;2022-11-03T03:01:43;101189.75;;;8.52;100.00
58243;BME280;50118;53.232;8.252;2022-11-03T03:06:55;101180.78;;;8.53;100.00
58243;BME280;50118;53.232;8.252;2022-11-03T03:09:25;101192.75;;;8.58;100.00
58243;BME280;50118;53.232;8.252;2022-11-03T03:11:54;101183.94;;;8.58;100.00
58243;BME280;50118;53.232;8.252;2022-11-03T03:14:24;101181.16;;;8.59;100.00
58243;BME280;50118;53.232;8.252;2022-11-03T03:21:53;101175.75;;;8.50;100.00
58243;BME280;50118;53.232;8.252;2022-11-03T03:26:56;101165.22;;;8.59;100.00
58243;BME280;50118;53.232;8.252;2022-11-03T03:29:38;101169.56;;;8.49;100.00
58243;BME280;50118;53.232;8.252;2022-11-03T03:32:07;101180.41;;;8.46;100.00
58243;BME280;50118;53.232;8.252;2022-11-03T03:34:37;101173.09;;;8.50;100.00
58243;BME280;50118;53.232;8.252;2022-11-03T03:37:04;101172.69;;;8.54;100.00
58243;BME280;50118;53.232;8.252;2022-11-03T03:39:33;101169.09;;;8.55;100.00
58243;BME280;50118;53.232;8.252;2022-11-03T03:42:01;101170.56;;;8.48;100.00
58243;BME280;50118;53.232;8.252;2022-11-03T03:44:27;101183.44;;;8.41;100.00
58243;BME280;50118;53.232;8.252;2022-11-03T03:46:59;101171.94;;;8.41;100.00
58243;BME280;50118;53.232;8.252;2022-11-03T03:49:25;101177.53;;;8.49;100.00
58243;BME280;50118;53.232;8.252;2022-11-03T03:51:51;101173.56;;;8.55;100.00
58243;BME280;50118;53.232;8.252;2022-11-03T03:54:16;101172.22;;;8.49;100.00
58243;BME280;50118;53.232;8.252;2022-11-03T03:59:20;101176.31;;;8.42;100.00
58243;BME280;50118;53.232;8.252;2022-11-03T04:01:45;101171.50;;;8.47;100.00
58243;BME280;50118;53.232;8.252;2022-11-03T04:04:11;101170.78;;;8.45;100.00
58243;BME280;50118;53.232;8.252;2022-11-03T04:06:36;101171.94;;;8.41;100.00
58243;BME280;50118;53.232;8.252;2022-11-03T04:09:02;101171.00;;;8.42;100.00
58243;BME280;50118;53.232;8.252;2022-11-03T04:11:27;101162.59;;;8.48;100.00
58243;BME280;50118;53.232;8.252;2022-11-03T04:14:11;101166.19;;;8.47;100.00
58243;BME280;50118;53.232;8.252;2022-11-03T04:16:55;101162.84;;;8.56;100.00
58243;BME280;50118;53.232;8.252;2022-11-03T04:19:39;101152.44;;;8.53;100.00
58243;BME280;50118;53.232;8.252;2022-11-03T04:22:29;101149.78;;;8.53;100.00
58243;BME280;50118;53.232;8.252;2022-11-03T04:24:57;101148.22;;;8.51;100.00
58243;BME280;50118;53.232;8.252;2022-11-03T04:29:48;101140.84;;;8.54;100.00
58243;BME280;50118;53.232;8.252;2022-11-03T04:32:16;101143.03;;;8.60;100.00
58243;BME280;50118;53.232;8.252;2022-11-03T04:34:43;101135.28;;;8.57;100.00
58243;BME280;50118;53.232;8.252;2022-11-03T04:37:13;101141.34;;;8.48;100.00
58243;BME280;50118;53.232;8.252;2022-11-03T04:39:39;101138.94;;;8.45;100.00
58243;BME280;50118;53.232;8.252;2022-11-03T04:44:39;101140.13;;;8.64;100.00
58243;BME280;50118;53.232;8.252;2022-11-03T04:47:08;101129.88;;;8.59;100.00
58243;BME280;50118;53.232;8.252;2022-11-03T04:49:35;101128.03;;;8.59;100.00
58243;BME280;50118;53.232;8.252;2022-11-03T04:52:01;101131.16;;;8.65;100.00
58243;BME280;50118;53.232;8.252;2022-11-03T04:54:26;101113.81;;;8.60;100.00
58243;BME280;50118;53.232;8.252;2022-11-03T04:56:52;101119.59;;;8.54;100.00
58243;BME280;50118;53.232;8.252;2022-11-03T04:59:17;101124.06;;;8.54;100.00
58243;BME280;50118;53.232;8.252;2022-11-03T05:01:44;101117.19;;;8.63;100.00
58243;BME280;50118;53.232;8.252;2022-11-03T05:04:15;101110.19;;;8.62;100.00
58243;BME280;50118;53.232;8.252;2022-11-03T05:06:50;101108.63;;;8.59;100.00
58243;BME280;50118;53.232;8.252;2022-11-03T05:09:20;101108.50;;;8.60;100.00
58243;BME280;50118;53.232;8.252;2022-11-03T05:11:48;101107.53;;;8.50;100.00
58243;BME280;50118;53.232;8.252;2022-11-03T05:14:23;101097.75;;;8.51;100.00
58243;BME280;50118;53.232;8.252;2022-11-03T05:16:51;101095.97;;;8.51;100.00
58243;BME280;50118;53.232;8.252;2022-11-03T05:19:31;101088.00;;;8.51;100.00
58243;BME280;50118;53.232;8.252;2022-11-03T05:21:59;101083.88;;;8.58;100.00
58243;BME280;50118;53.232;8.252;2022-11-03T05:24:25;101072.75;;;8.65;100.00
58243;BME280;50118;53.232;8.252;2022-11-03T05:26:53;101068.19;;;8.55;100.00
58243;BME280;50118;53.232;8.252;2022-11-03T05:29:25;101072.78;;;8.53;100.00
58243;BME280;50118;53.232;8.252;2022-11-03T05:31:52;101065.06;;;8.62;100.00
58243;BME280;50118;53.232;8.252;2022-11-03T05:36:54;101066.47;;;8.66;100.00
58243;BME280;50118;53.232;8.252;2022-11-03T05:41:45;101062.13;;;8.65;100.00
58243;BME280;50118;53.232;8.252;2022-11-03T05:46:50;101050.06;;;8.60;100.00
58243;BME280;50118;53.232;8.252;2022-11-03T05:49:15;101051.25;;;8.68;100.00
58243;BME280;50118;53.232;8.252;2022-11-03T05:51:41;101041.88;;;8.64;100.00
58243;BME280;50118;53.232;8.252;2022-11-03T05:54:20;101035.31;;;8.68;100.00
58243;BME280;50118;53.232;8.252;2022-11-03T05:56:46;101034.38;;;8.69;100.00
58243;BME280;50118;53.232;8.252;2022-11-03T05:59:13;101027.69;;;8.74;100.00
58243;BME280;50118;53.232;8.252;2022-11-03T06:01:39;101027.22;;;8.69;100.00
58243;BME280;50118;53.232;8.252;2022-11-03T06:04:31;101033.72;;;8.76;100.00
58243;BME280;50118;53.232;8.252;2022-11-03T06:07:03;101020.78;;;8.83;100.00
58243;BME280;50118;53.232;8.252;2022-11-03T06:09:32;101026.81;;;8.85;100.00
58243;BME280;50118;53.232;8.252;2022-11-03T06:12:00;101020.31;;;8.78;100.00
58243;BME280;50118;53.232;8.252;2022-11-03T06:14:29;101024.91;;;8.76;100.00
58243;BME280;50118;53.232;8.252;2022-11-03T06:17:03;101025.69;;;8.67;100.00
58243;BME280;50118;53.232;8.252;2022-11-03T06:22:14;101034.84;;;8.74;100.00
58243;BME280;50118;53.232;8.252;2022-11-03T06:24:42;101029.66;;;8.72;100.00
58243;BME280;50118;53.232;8.252;2022-11-03T06:27:19;101013.84;;;8.71;100.00
58243;BME280;50118;53.232;8.252;2022-11-03T06:29:49;101018.56;;;8.67;100.00
58243;BME280;50118;53.232;8.252;2022-11-03T06:32:16;101016.28;;;8.63;100.00
58243;BME280;50118;53.232;8.252;2022-11-03T06:34:43;101014.84;;;8.58;100.00
58243;BME280;50118;53.232;8.252;2022-11-03T06:37:18;101016.28;;;8.63;100.00
58243;BME280;50118;53.232;8.252;2022-11-03T06:39:44;101006.81;;;8.70;100.00
58243;BME280;50118;53.232;8.252;2022-11-03T06:42:12;101011.66;;;8.65;100.00
58243;BME280;50118;53.232;8.252;2022-11-03T06:44:43;101001.78;;;8.67;100.00
58243;BME280;50118;53.232;8.252;2022-11-03T06:47:21;101010.34;;;8.70;100.00
58243;BME280;50118;53.232;8.252;2022-11-03T06:49:53;101006.00;;;8.69;100.00
58243;BME280;50118;53.232;8.252;2022-11-03T06:52:28;101005.50;;;8.75;100.00
58243;BME280;50118;53.232;8.252;2022-11-03T06:57:42;101002.44;;;8.80;100.00
58243;BME280;50118;53.232;8.252;2022-11-03T07:00:20;101000.78;;;8.79;100.00
58243;BME280;50118;53.232;8.252;2022-11-03T07:05:30;100990.59;;;8.84;100.00
58243;BME280;50118;53.232;8.252;2022-11-03T07:07:59;100991.97;;;9.00;100.00
58243;BME280;50118;53.232;8.252;2022-11-03T07:10:31;100999.25;;;8.97;100.00
58243;BME280;50118;53.232;8.252;2022-11-03T07:13:11;100992.81;;;9.00;100.00
58243;BME280;50118;53.232;8.252;2022-11-03T07:15:39;100993.38;;;9.04;100.00
58243;BME280;50118;53.232;8.252;2022-11-03T07:18:17;100984.34;;;9.06;100.00
58243;BME280;50118;53.232;8.252;2022-11-03T07:20:44;100984.13;;;9.19;100.00
58243;BME280;50118;53.232;8.252;2022-11-03T07:23:13;100983.75;;;9.24;100.00
58243;BME280;50118;53.232;8.252;2022-11-03T07:25:41;100974.94;;;9.23;100.00
58243;BME280;50118;53.232;8.252;2022-11-03T07:28:07;100974.25;;;9.31;100.00
58243;BME280;50118;53.232;8.252;2022-11-03T07:30:35;100978.50;;;9.33;100.00
58243;BME280;50118;53.232;8.252;2022-11-03T07:33:09;100974.31;;;9.41;100.00
58243;BME280;50118;53.232;8.252;2022-11-03T07:35:43;100970.69;;;9.42;100.00
58243;BME280;50118;53.232;8.252;2022-11-03T07:38:23;100963.16;;;9.47;100.00
58243;BME280;50118;53.232;8.252;2022-11-03T07:40:50;100961.59;;;9.44;100.00
58243;BME280;50118;53.232;8.252;2022-11-03T07:43:19;100965.16;;;9.54;100.00
58243;BME280;50118;53.232;8.252;2022-11-03T07:45:54;100966.28;;;9.62;100.00
58243;BME280;50118;53.232;8.252;2022-11-03T07:48:21;100961.53;;;9.56;100.00
58243;BME280;50118;53.232;8.252;2022-11-03T07:50:50;100958.09;;;9.75;100.00
58243;BME280;50118;53.232;8.252;2022-11-03T07:55:48;100952.78;;;9.75;100.00
58243;BME280;50118;53.232;8.252;2022-11-03T07:58:20;100943.19;;;9.93;100.00
58243;BME280;50118;53.232;8.252;2022-11-03T08:00:46;100929.44;;;9.88;100.00
58243;BME280;50118;53.232;8.252;2022-11-03T08:03:41;100933.94;;;9.97;100.00
58243;BME280;50118;53.232;8.252;2022-11-03T08:06:05;100926.94;;;10.06;100.00
58243;BME280;50118;53.232;8.252;2022-11-03T08:08:31;100929.91;;;10.13;100.00
58243;BME280;50118;53.232;8.252;2022-11-03T08:10:56;100920.53;;;10.28;100.00
58243;BME280;50118;53.232;8.252;2022-11-03T08:13:21;100923.66;;;10.33;100.00
58243;BME280;50118;53.232;8.252;2022-11-03T08:15:47;100913.72;;;10.45;100.00
58243;BME280;50118;53.232;8.252;2022-11-03T08:18:12;100921.69;;;10.45;100.00
58243;BME280;50118;53.232;8.252;2022-11-03T08:20:37;100919.19;;;10.53;100.00
58243;BME280;50118;53.232;8.252;2022-11-03T08:23:03;100908.53;;;10.63;100.00
58243;BME280;50118;53.232;8.252;2022-11-03T08:25:28;100909.63;;;10.60;100.00
58243;BME280;50118;53.232;8.252;2022-11-03T08:27:54;100903.03;;;10.74;100.00
58243;BME280;50118;53.232;8.252;2022-11-03T08:30:19;100903.75;;;10.76;99.86
58243;BME280;50118;53.232;8.252;2022-11-03T08:32:44;100899.25;;;10.77;99.28
58243;BME280;50118;53.232;8.252;2022-11-03T08:35:10;100902.63;;;10.69;99.97
58243;BME280;50118;53.232;8.252;2022-11-03T08:37:35;100895.16;;;10.82;100.00
58243;BME280;50118;53.232;8.252;2022-11-03T08:40:00;100893.78;;;10.88;99.56
58243;BME280;50118;53.232;8.252;2022-11-03T08:42:26;100894.75;;;10.87;99.30
58243;BME280;50118;53.232;8.252;2022-11-03T08:44:51;100889.41;;;10.97;100.00
58243;BME280;50118;53.232;8.252;2022-11-03T08:47:17;100888.53;;;11.06;99.33
58243;BME280;50118;53.232;8.252;2022-11-03T08:49:42;100881.22;;;11.08;98.27
58243;BME280;50118;53.232;8.252;2022-11-03T08:52:07;100882.66;;;11.02;98.40
58243;BME280;50118;53.232;8.252;2022-11-03T08:54:33;100885.41;;;11.20;97.47
58243;BME280;50118;53.232;8.252;2022-11-03T08:56:58;100880.66;;;11.14;98.02
58243;BME280;50118;53.232;8.252;2022-11-03T08:59:23;100873.06;;;11.19;97.57
58243;BME280;50118;53.232;8.252;2022-11-03T09:01:49;100868.94;;;11.25;97.63
58243;BME280;50118;53.232;8.252;2022-11-03T09:04:14;100871.69;;;11.15;98.01
58243;BME280;50118;53.232;8.252;2022-11-03T09:06:40;100872.88;;;11.31;97.77
58243;BME280;50118;53.232;8.252;2022-11-03T09:09:05;100871.59;;;11.35;97.10
58243;BME280;50118;53.232;8.252;2022-11-03T09:11:30;100863.97;;;11.40;97.21
58243;BME280;50118;53.232;8.252;2022-11-03T09:13:56;100866.19;;;11.54;96.02
58243;BME280;50118;53.232;8.252;2022-11-03T09:16:22;100863.03;;;11.59;96.61
58243;BME280;50118;53.232;8.252;2022-11-03T09:18:47;100855.56;;;11.63;95.32
58243;BME280;50118;53.232;8.252;2022-11-03T09:21:12;100856.28;;;11.65;95.54
58243;BME280;50118;53.232;8.252;2022-11-03T09:23:39;100849.50;;;11.70;94.72
58243;BME280;50118;53.232;8.252;2022-11-03T09:26:04;100850.19;;;11.72;94.96
58243;BME280;50118;53.232;8.252;2022-11-03T09:28:31;100859.34;;;11.70;95.68
58243;BME280;50118;53.232;8.252;2022-11-03T09:30:59;100854.69;;;11.90;94.06
58243;BME280;50118;53.232;8.252;2022-11-03T09:33:25;100848.53;;;11.89;93.50
58243;BME280;50118;53.232;8.252;2022-11-03T09:35:50;100843.31;;;11.98;92.79
58243;BME280;50118;53.232;8.252;2022-11-03T09:38:15;100837.47;;;11.84;94.11
58243;BME280;50118;53.232;8.252;2022-11-03T09:40:41;100839.97;;;11.95;93.33
58243;BME280;50118;53.232;8.252;2022-11-03T09:43:07;100843.31;;;11.98;93.16
58243;BME280;50118;53.232;8.252;2022-11-03T09:45:32;100821.44;;;11.94;93.32
58243;BME280;50118;53.232;8.252;2022-11-03T09:47:58;100838.75;;;12.08;93.65
58243;BME280;50118;53.232;8.252;2022-11-03T09:50:23;100836.66;;;12.02;92.99
58243;BME280;50118;53.232;8.252;2022-11-03T09:52:49;100828.50;;;12.21;92.40
58243;BME280;50118;53.232;8.252;2022-11-03T09:55:24;100825.22;;;12.27;91.42
58243;BME280;50118;53.232;8.252;2022-11-03T09:57:58;100819.28;;;11.98;92.44
58243;BME280;50118;53.232;8.252;2022-11-03T10:00:25;100819.13;;;12.17;92.09
58243;BME280;50118;53.232;8.252;2022-11-03T10:02:52;100816.91;;;12.30;91.92
58243;BME280;50118;53.232;8.252;2022-11-03T10:05:23;100817.28;;;12.36;91.44
58243;BME280;50118;53.232;8.252;2022-11-03T10:07:56;100820.19;;;12.24;93.01
58243;BME280;50118;53.232;8.252;2022-11-03T10:10:26;100816.72;;;12.50;92.46
58243;BME280;50118;53.232;8.252;2022-11-03T10:12:52;100815.53;;;12.70;91.32
58243;BME280;50118;53.232;8.252;2022-11-03T10:15:25;100815.22;;;12.74;90.83
58243;BME280;50118;53.232;8.252;2022-11-03T10:17:54;100812.22;;;12.77;89.31
58243;BME280;50118;53.232;8.252;2022-11-03T10:20:21;100809.94;;;12.90;89.37
58243;BME280;50118;53.232;8.252;2022-11-03T10:22:50;100806.19;;;13.01;88.91
58243;BME280;50118;53.232;8.252;2022-11-03T10:25:40;100799.66;;;13.03;89.53
58243;BME280;50118;53.232;8.252;2022-11-03T10:28:22;100791.16;;;13.08;87.67
58243;BME280;50118;53.232;8.252;2022-11-03T10:31:00;100787.47;;;13.09;87.46
58243;BME280;50118;53.232;8.252;2022-11-03T10:33:37;100779.81;;;13.06;88.03
58243;BME280;50118;53.232;8.252;2022-11-03T10:36:26;100774.94;;;13.01;88.56
58243;BME280;50118;53.232;8.252;2022-11-03T10:38:53;100769.91;;;12.98;90.06
58243;BME280;50118;53.232;8.252;2022-11-03T10:41:30;100767.25;;;13.06;88.37
58243;BME280;50118;53.232;8.252;2022-11-03T10:46:38;100758.88;;;13.01;89.09
58243;BME280;50118;53.232;8.252;2022-11-03T10:49:15;100755.91;;;13.13;88.01
58243;BME280;50118;53.232;8.252;2022-11-03T10:51:44;100745.22;;;13.13;88.39
58243;BME280;50118;53.232;8.252;2022-11-03T10:54:13;100745.94;;;13.23;87.27
58243;BME280;50118;53.232;8.252;2022-11-03T10:56:41;100747.69;;;13.40;87.12
58243;BME280;50118;53.232;8.252;2022-11-03T10:59:19;100731.81;;;13.47;87.52
58243;BME280;50118;53.232;8.252;2022-11-03T11:01:45;100738.53;;;13.68;85.53
58243;BME280;50118;53.232;8.252;2022-11-03T11:04:15;100733.03;;;13.77;83.81
58243;BME280;50118;53.232;8.252;2022-11-03T11:06:41;100735.50;;;13.79;84.31
58243;BME280;50118;53.232;8.252;2022-11-03T11:09:12;100731.03;;;13.79;83.64
58243;BME280;50118;53.232;8.252;2022-11-03T11:11:38;100716.44;;;13.90;84.67
58243;BME280;50118;53.232;8.252;2022-11-03T11:16:59;100711.78;;;13.76;82.59
58243;BME280;50118;53.232;8.252;2022-11-03T11:19:26;100705.25;;;13.87;83.40
58243;BME280;50118;53.232;8.252;2022-11-03T11:29:59;100680.63;;;13.58;83.63
58243;BME280;50118;53.232;8.252;2022-11-03T11:35:07;100671.28;;;13.54;84.12
58243;BME280;50118;53.232;8.252;2022-11-03T11:37:34;100672.28;;;13.70;84.56
58243;BME280;50118;53.232;8.252;2022-11-03T11:40:01;100663.09;;;13.64;84.58
58243;BME280;50118;53.232;8.252;2022-11-03T11:42:26;100660.75;;;13.69;83.92
58243;BME280;50118;53.232;8.252;2022-11-03T11:44:54;100660.41;;;13.48;84.58
58243;BME280;50118;53.232;8.252;2022-11-03T11:47:29;100654.72;;;13.59;nan
58243;BME280;50118;53.232;8.252;2022-11-03T11:58:01;100650.03;;;13.53;84.58
58243;BME280;50118;53.232;8.252;2022-11-03T12:00:34;100649.69;;;13.56;83.65
58243;BME280;50118;53.232;8.252;2022-11-03T12:03:04;100637.13;;;13.40;84.27
58243;BME280;50118;53.232;8.252;2022-11-03T12:05:34;100623.41;;;13.35;84.15
58243;BME280;50118;53.232;8.252;2022-11-03T12:08:00;100620.25;;;13.48;84.18
58243;BME280;50118;53.232;8.252;2022-11-03T12:13:50;100605.38;;;13.45;84.29
58243;BME280;50118;53.232;8.252;2022-11-03T12:16:34;100600.38;;;13.42;83.88
58243;BME280;50118;53.232;8.252;2022-11-03T12:19:34;100590.84;;;13.56;84.48
58243;BME280;50118;53.232;8.252;2022-11-03T12:22:10;100579.09;;;13.57;83.53
58243;BME280;50118;53.232;8.252;2022-11-03T12:24:44;100571.41;;;13.62;83.33
58243;BME280;50118;53.232;8.252;2022-11-03T12:30:16;100573.75;;;13.65;83.29
58243;BME280;50118;53.232;8.252;2022-11-03T12:32:43;100576.44;;;13.57;84.03
58243;BME280;50118;53.232;8.252;2022-11-03T12:35:09;100572.09;;;13.64;83.47
58243;BME280;50118;53.232;8.252;2022-11-03T12:37:35;100567.06;;;13.69;83.22
58243;BME280;50118;53.232;8.252;2022-11-03T12:40:01;100568.72;;;13.78;81.96
58243;BME280;50118;53.232;8.252;2022-11-03T12:42:27;100559.88;;;13.70;82.68
58243;BME280;50118;53.232;8.252;2022-11-03T12:44:52;100563.69;;;13.67;82.15
58243;BME280;50118;53.232;8.252;2022-11-03T12:47:18;100566.19;;;13.77;82.57
58243;BME280;50118;53.232;8.252;2022-11-03T12:49:44;100558.88;;;13.62;82.84
58243;BME280;50118;53.232;8.252;2022-11-03T12:52:09;100558.03;;;13.62;82.36
58243;BME280;50118;53.232;8.252;2022-11-03T12:54:35;100563.75;;;13.42;83.83
58243;BME280;50118;53.232;8.252;2022-11-03T12:57:01;100550.38;;;13.51;82.92
58243;BME280;50118;53.232;8.252;2022-11-03T12:59:26;100541.00;;;13.38;82.88
58243;BME280;50118;53.232;8.252;2022-11-03T13:01:52;100536.31;;;13.49;80.59
58243;BME280;50118;53.232;8.252;2022-11-03T13:04:17;100535.31;;;13.41;80.99
58243;BME280;50118;53.232;8.252;2022-11-03T13:06:43;100528.97;;;13.34;81.68
58243;BME280;50118;53.232;8.252;2022-11-03T13:09:08;100522.25;;;13.30;81.76
58243;BME280;50118;53.232;8.252;2022-11-03T13:11:34;100524.59;;;13.25;81.72
58243;BME280;50118;53.232;8.252;2022-11-03T13:14:18;100515.59;;;13.10;81.88
58243;BME280;50118;53.232;8.252;2022-11-03T13:16:44;100531.09;;;13.22;81.97
58243;BME280;50118;53.232;8.252;2022-11-03T13:19:18;100520.25;;;13.16;82.00
58243;BME280;50118;53.232;8.252;2022-11-03T13:21:44;100518.44;;;13.16;81.66
58243;BME280;50118;53.232;8.252;2022-11-03T13:24:10;100508.38;;;13.26;81.00
58243;BME280;50118;53.232;8.252;2022-11-03T13:26:38;100505.88;;;13.25;81.68
58243;BME280;50118;53.232;8.252;2022-11-03T13:29:04;100496.88;;;13.18;81.38
58243;BME280;50118;53.232;8.252;2022-11-03T13:31:29;100492.50;;;13.25;81.44
58243;BME280;50118;53.232;8.252;2022-11-03T13:33:55;100483.13;;;13.21;81.22
58243;BME280;50118;53.232;8.252;2022-11-03T13:36:21;100480.94;;;13.24;80.92
58243;BME280;50118;53.232;8.252;2022-11-03T13:38:46;100480.78;;;13.26;82.27
58243;BME280;50118;53.232;8.252;2022-11-03T13:41:11;100476.28;;;13.18;80.87
58243;BME280;50118;53.232;8.252;2022-11-03T13:43:37;100462.25;;;13.16;81.85
58243;BME280;50118;53.232;8.252;2022-11-03T13:46:02;100458.41;;;13.11;81.53
58243;BME280;50118;53.232;8.252;2022-11-03T13:48:29;100437.72;;;13.04;81.37
58243;BME280;50118;53.232;8.252;2022-11-03T13:50:55;100434.50;;;13.09;81.45
58243;BME280;50118;53.232;8.252;2022-11-03T13:53:21;100430.19;;;13.00;82.18
58243;BME280;50118;53.232;8.252;2022-11-03T13:55:49;100424.84;;;13.00;82.21
58243;BME280;50118;53.232;8.252;2022-11-03T13:58:15;100418.34;;;12.86;82.12
58243;BME280;50118;53.232;8.252;2022-11-03T14:04:04;100401.97;;;12.89;82.69
58243;BME280;50118;53.232;8.252;2022-11-03T14:06:39;100394.97;;;12.63;84.66
58243;BME280;50118;53.232;8.252;2022-11-03T14:09:04;100384.91;;;12.82;84.52
58243;BME280;50118;53.232;8.252;2022-11-03T14:11:30;100375.56;;;12.69;84.88
58243;BME280;50118;53.232;8.252;2022-11-03T14:14:23;100380.91;;;12.78;85.28
58243;BME280;50118;53.232;8.252;2022-11-03T14:16:49;100376.41;;;12.70;85.65
58243;BME280;50118;53.232;8.252;2022-11-03T14:19:14;100365.03;;;12.60;86.42